Time;durP1;ratioP1;P1;durP2;ratioP2;P2;SDS_P1;SDS_P2;PMS_P1;PMS_P2;Temp;Humidity;BMP_temperature;BMP_pressure;BME280_temperature;BME280_humidity;BME280_pressure;Samples;Min_cycle;Max_cycle;Signal;HPM_P1;HPM_P2
2024/01/11 00:01:11;;;;;;;16.13;8.85;;;;;;;;;;5110562;27;20059;-58
2024/01/11 00:03:37;;;;;;;15.80;8.13;;;;;;;;;;5110436;27;20528;-60
2024/01/11 00:06:04;;;;;;;14.55;9.35;;;;;;;;;;5110231;27;20052;-60
2024/01/11 00:08:30;;;;;;;17.67;8.95;;;;;;;;;;5108859;28;20044;-59
2024/01/11 00:10:57;;;;;;;15.82;8.80;;;;;;;;;;5110081;27;20081;-60
2024/01/11 00:13:23;;;;;;;17.48;8.93;;;;;;;;;;5109831;27;20063;-60
2024/01/11 00:15:49;;;;;;;17.20;8.35;;;;;;;;;;5109970;27;20522;-59
2024/01/11 00:18:17;;;;;;;15.27;7.82;;;;;;;;;;5109843;27;20056;-59
2024/01/11 00:20:44;;;;;;;16.27;9.02;;;;;;;;;;5110032;27;20143;-57
2024/01/11 00:23:10;;;;;;;16.13;9.57;;;;;;;;;;5110539;27;20048;-60
2024/01/11 00:25:37;;;;;;;15.52;8.88;;;;;;;;;;5110847;27;20083;-61
2024/01/11 00:28:03;;;;;;;18.83;10.07;;;;;;;;;;5109238;27;20602;-60
2024/01/11 00:30:30;;;;;;;15.82;8.85;;;;;;;;;;5109944;27;20486;-60
2024/01/11 00:32:56;;;;;;;18.88;9.90;;;;;;;;;;5109674;27;20561;-60
2024/01/11 00:35:23;;;;;;;18.17;9.65;;;;;;;;;;5109922;27;20052;-58
2024/01/11 00:37:49;;;;;;;22.30;9.52;;;;;;;;;;5109327;27;20472;-59
2024/01/11 00:40:15;;;;;;;22.50;10.35;;;;;;;;;;5109613;27;20056;-60
2024/01/11 00:42:42;;;;;;;16.50;9.80;;;;;;;;;;5109718;27;20129;-59
2024/01/11 00:45:08;;;;;;;19.63;9.70;;;;;;;;;;5109981;28;20125;-60
2024/01/11 00:47:35;;;;;;;17.52;10.35;;;;;;;;;;5109722;27;20062;-58
2024/01/11 00:50:01;;;;;;;20.35;10.75;;;;;;;;;;5109171;27;20056;-58
2024/01/11 00:52:27;;;;;;;18.17;9.93;;;;;;;;;;5109385;27;20465;-60
2024/01/11 00:54:54;;;;;;;15.95;9.20;;;;;;;;;;5109293;27;20485;-59
2024/01/11 00:57:20;;;;;;;20.52;10.18;;;;;;;;;;5109431;27;20498;-58
2024/01/11 00:59:48;;;;;;;17.85;9.32;;;;;;;;;;5109515;27;20117;-60
2024/01/11 01:02:14;;;;;;;20.17;9.70;;;;;;;;;;5109110;27;20052;-60
2024/01/11 01:04:40;;;;;;;20.92;10.45;;;;;;;;;;5109607;27;20174;-60
2024/01/11 01:07:07;;;;;;;17.48;9.82;;;;;;;;;;5109255;27;20056;-60
2024/01/11 01:09:34;;;;;;;21.95;10.27;;;;;;;;;;5109193;27;20044;-58
2024/01/11 01:12:00;;;;;;;20.95;10.63;;;;;;;;;;5109174;27;20060;-60
2024/01/11 01:14:27;;;;;;;18.23;9.57;;;;;;;;;;5109111;27;20059;-60
2024/01/11 01:16:53;;;;;;;21.25;10.38;;;;;;;;;;5109033;27;20139;-59
2024/01/11 01:19:20;;;;;;;17.02;9.93;;;;;;;;;;5109458;27;20051;-60
2024/01/11 01:21:46;;;;;;;17.92;9.52;;;;;;;;;;5108996;28;20044;-61
2024/01/11 01:24:13;;;;;;;18.13;9.77;;;;;;;;;;5108837;27;20099;-60
2024/01/11 01:26:39;;;;;;;19.67;10.15;;;;;;;;;;5109368;27;20105;-58
2024/01/11 01:29:06;;;;;;;17.92;8.93;;;;;;;;;;5108867;27;20091;-61
2024/01/11 01:31:37;;;;;;;17.42;9.88;;;;;;;;;;5109195;27;20514;-61
2024/01/11 01:34:04;;;;;;;21.77;8.98;;;;;;;;;;5109301;27;20106;-60
2024/01/11 01:36:30;;;;;;;20.60;9.50;;;;;;;;;;5109023;27;20087;-60
2024/01/11 01:38:56;;;;;;;17.52;9.43;;;;;;;;;;5108419;27;20151;-59
2024/01/11 01:41:23;;;;;;;17.25;9.95;;;;;;;;;;5108533;27;20048;-60
2024/01/11 01:43:49;;;;;;;20.58;10.15;;;;;;;;;;5108588;27;20058;-61
2024/01/11 01:46:19;;;;;;;19.08;10.50;;;;;;;;;;5108872;27;20056;-59
2024/01/11 01:48:45;;;;;;;20.40;9.18;;;;;;;;;;5109478;27;20515;-61
2024/01/11 01:51:12;;;;;;;22.50;9.88;;;;;;;;;;5113050;27;20494;-60
2024/01/11 01:53:38;;;;;;;16.63;9.52;;;;;;;;;;5112288;27;20044;-59
2024/01/11 01:56:06;;;;;;;21.95;10.75;;;;;;;;;;5113491;27;20048;-60
2024/01/11 01:58:33;;;;;;;21.17;9.98;;;;;;;;;;5112956;27;20052;-60
2024/01/11 02:00:59;;;;;;;19.92;9.63;;;;;;;;;;5112697;27;20072;-60
2024/01/11 02:03:27;;;;;;;16.58;10.10;;;;;;;;;;5112857;27;20055;-60
2024/01/11 02:05:54;;;;;;;18.10;9.75;;;;;;;;;;5111045;28;20051;-60
2024/01/11 02:08:21;;;;;;;17.90;9.40;;;;;;;;;;5111475;27;20052;-59
2024/01/11 02:10:48;;;;;;;18.45;9.98;;;;;;;;;;5112297;27;20054;-59
2024/01/11 02:13:15;;;;;;;24.40;11.10;;;;;;;;;;5111395;28;20572;-58
2024/01/11 02:15:41;;;;;;;21.75;11.07;;;;;;;;;;5112365;27;20399;-59
2024/01/11 02:18:07;;;;;;;23.80;10.93;;;;;;;;;;5111760;27;20056;-60
2024/01/11 02:20:34;;;;;;;24.13;11.85;;;;;;;;;;5111892;27;20592;-60
2024/01/11 02:23:03;;;;;;;20.35;10.88;;;;;;;;;;5111370;27;20059;-60
2024/01/11 02:25:29;;;;;;;26.53;13.33;;;;;;;;;;5111682;27;20056;-59
2024/01/11 02:27:56;;;;;;;26.58;13.77;;;;;;;;;;5111875;27;20048;-59
2024/01/11 02:30:22;;;;;;;20.27;12.38;;;;;;;;;;5111292;27;20052;-59
2024/01/11 02:32:49;;;;;;;23.05;12.20;;;;;;;;;;5111722;27;20568;-60
2024/01/11 02:35:16;;;;;;;20.95;11.80;;;;;;;;;;5112107;27;20530;-60
2024/01/11 02:37:43;;;;;;;23.23;13.27;;;;;;;;;;5111470;27;20055;-60
2024/01/11 02:40:10;;;;;;;26.27;12.55;;;;;;;;;;5111438;27;20518;-60
2024/01/11 02:42:36;;;;;;;25.70;13.68;;;;;;;;;;5110258;28;20517;-60
2024/01/11 02:45:03;;;;;;;26.42;14.02;;;;;;;;;;5111628;27;20083;-60
2024/01/11 02:47:30;;;;;;;31.30;14.32;;;;;;;;;;5111204;27;20384;-61
2024/01/11 02:49:56;;;;;;;28.35;15.02;;;;;;;;;;5110903;27;20528;-60
2024/01/11 02:52:23;;;;;;;26.77;14.23;;;;;;;;;;5111179;27;20052;-60
2024/01/11 02:54:49;;;;;;;24.88;13.25;;;;;;;;;;5110808;27;20633;-60
2024/01/11 02:57:16;;;;;;;26.43;13.03;;;;;;;;;;5111525;27;20495;-61
2024/01/11 02:59:43;;;;;;;25.65;14.38;;;;;;;;;;5111237;27;20055;-57
2024/01/11 03:02:09;;;;;;;27.67;13.53;;;;;;;;;;5111432;27;20102;-61
2024/01/11 03:04:35;;;;;;;27.93;14.93;;;;;;;;;;5111389;27;20110;-59
2024/01/11 03:07:02;;;;;;;32.50;15.20;;;;;;;;;;5110694;27;20048;-59
2024/01/11 03:09:28;;;;;;;27.13;15.23;;;;;;;;;;5111223;27;20052;-60
2024/01/11 03:11:55;;;;;;;25.02;13.93;;;;;;;;;;5109970;28;20056;-60
2024/01/11 03:14:21;;;;;;;40.73;15.33;;;;;;;;;;5111129;27;20056;-61
2024/01/11 03:16:47;;;;;;;30.83;15.30;;;;;;;;;;5110839;27;20142;-61
2024/01/11 03:19:14;;;;;;;26.30;14.30;;;;;;;;;;5111390;27;20056;-60
2024/01/11 03:21:43;;;;;;;30.53;16.60;;;;;;;;;;5110383;27;20056;-58
2024/01/11 03:24:10;;;;;;;29.63;15.27;;;;;;;;;;5111051;27;20504;-60
2024/01/11 03:26:36;;;;;;;32.90;17.20;;;;;;;;;;5110999;27;20644;-60
2024/01/11 03:29:03;;;;;;;27.97;16.20;;;;;;;;;;5110846;27;20648;-60
2024/01/11 03:31:29;;;;;;;27.53;15.67;;;;;;;;;;5111100;27;20566;-60
2024/01/11 03:33:55;;;;;;;33.20;16.67;;;;;;;;;;5110606;27;20122;-60
2024/01/11 03:36:23;;;;;;;24.43;14.80;;;;;;;;;;5110128;27;20088;-60
2024/01/11 03:38:50;;;;;;;32.07;16.80;;;;;;;;;;5110691;27;20058;-60
2024/01/11 03:41:18;;;;;;;28.23;15.57;;;;;;;;;;5110846;27;20055;-60
2024/01/11 03:43:44;;;;;;;26.13;14.90;;;;;;;;;;5109255;27;20502;-59
2024/01/11 03:46:10;;;;;;;32.07;16.83;;;;;;;;;;5110474;27;20052;-60
2024/01/11 03:48:37;;;;;;;31.17;16.90;;;;;;;;;;5110663;27;20564;-60
2024/01/11 03:51:03;;;;;;;32.20;16.93;;;;;;;;;;5109843;27;20066;-60
2024/01/11 03:53:30;;;;;;;26.70;14.43;;;;;;;;;;5110367;28;20102;-58
2024/01/11 03:55:56;;;;;;;27.75;16.27;;;;;;;;;;5110438;27;20102;-60
2024/01/11 03:58:23;;;;;;;26.70;16.47;;;;;;;;;;5110035;27;20513;-60
2024/01/11 04:00:50;;;;;;;34.20;16.27;;;;;;;;;;5111042;27;20537;-58
2024/01/11 04:03:16;;;;;;;32.47;17.77;;;;;;;;;;5110498;27;20051;-59
2024/01/11 04:05:43;;;;;;;26.47;15.97;;;;;;;;;;5110486;27;20056;-60
2024/01/11 04:08:10;;;;;;;29.27;16.20;;;;;;;;;;5110058;27;20056;-59
2024/01/11 04:10:36;;;;;;;31.53;17.50;;;;;;;;;;5110185;27;20056;-59
2024/01/11 04:13:03;;;;;;;27.30;16.67;;;;;;;;;;5109510;27;20063;-60
2024/01/11 04:15:29;;;;;;;33.97;17.77;;;;;;;;;;5110324;27;20052;-60
2024/01/11 04:17:55;;;;;;;28.83;16.87;;;;;;;;;;5109422;28;20109;-60
2024/01/11 04:20:24;;;;;;;34.10;18.73;;;;;;;;;;5109917;27;20044;-60
2024/01/11 04:22:50;;;;;;;34.43;18.20;;;;;;;;;;5110628;27;20059;-59
2024/01/11 04:25:16;;;;;;;36.20;18.87;;;;;;;;;;5110207;27;20074;-59
2024/01/11 04:27:43;;;;;;;31.27;18.17;;;;;;;;;;5110123;27;20639;-60
2024/01/11 04:30:09;;;;;;;35.03;18.13;;;;;;;;;;5109919;27;20578;-59
2024/01/11 04:32:36;;;;;;;38.57;19.90;;;;;;;;;;5108721;27;20083;-57
2024/01/11 04:35:02;;;;;;;36.63;19.10;;;;;;;;;;5109858;27;20056;-59
2024/01/11 04:37:29;;;;;;;37.60;18.67;;;;;;;;;;5109676;27;20080;-60
2024/01/11 04:39:59;;;;;;;35.43;19.77;;;;;;;;;;5109515;27;20599;-59
2024/01/11 04:42:28;;;;;;;31.33;17.90;;;;;;;;;;5109660;27;20059;-58
2024/01/11 04:44:55;;;;;;;38.50;20.27;;;;;;;;;;5109908;27;20143;-59
2024/01/11 04:47:21;;;;;;;39.95;20.27;;;;;;;;;;5109144;27;20475;-60
2024/01/11 04:49:47;;;;;;;35.65;19.23;;;;;;;;;;5108936;27;20147;-60
2024/01/11 04:52:14;;;;;;;36.83;20.07;;;;;;;;;;5109751;27;20086;-58
2024/01/11 04:54:40;;;;;;;33.40;18.67;;;;;;;;;;5109576;27;20055;-60
2024/01/11 04:57:07;;;;;;;39.73;20.80;;;;;;;;;;5109163;27;20603;-60
2024/01/11 04:59:33;;;;;;;36.47;20.03;;;;;;;;;;5109239;27;20684;-62
2024/01/11 05:02:00;;;;;;;34.50;19.80;;;;;;;;;;5108919;27;20498;-61
2024/01/11 05:04:26;;;;;;;37.13;20.13;;;;;;;;;;5109196;27;20075;-60
2024/01/11 05:06:53;;;;;;;40.03;20.67;;;;;;;;;;5109585;27;20600;-60
2024/01/11 05:09:19;;;;;;;32.60;19.20;;;;;;;;;;5109385;27;20139;-60
2024/01/11 05:11:45;;;;;;;38.23;21.10;;;;;;;;;;5109417;27;20056;-60
2024/01/11 05:14:12;;;;;;;42.13;19.60;;;;;;;;;;5108747;27;20079;-62
2024/01/11 05:16:39;;;;;;;36.23;19.90;;;;;;;;;;5108918;27;20067;-62
2024/01/11 05:19:05;;;;;;;35.47;20.07;;;;;;;;;;5109271;27;20143;-60
2024/01/11 05:21:32;;;;;;;29.77;18.57;;;;;;;;;;5108709;27;20052;-60
2024/01/11 05:23:58;;;;;;;29.80;19.10;;;;;;;;;;5107954;27;20140;-59
2024/01/11 05:26:25;;;;;;;39.27;22.33;;;;;;;;;;5109264;27;20055;-59
2024/01/11 05:28:51;;;;;;;34.70;19.40;;;;;;;;;;5109281;27;20056;-59
2024/01/11 05:31:18;;;;;;;35.53;19.40;;;;;;;;;;5108779;27;20118;-60
2024/01/11 05:33:45;;;;;;;38.00;19.83;;;;;;;;;;5109348;27;20052;-63
2024/01/11 05:36:12;;;;;;;35.37;19.97;;;;;;;;;;5109036;27;20052;-60
2024/01/11 05:38:39;;;;;;;36.20;20.40;;;;;;;;;;5108911;27;20530;-60
2024/01/11 05:41:05;;;;;;;35.63;19.27;;;;;;;;;;5109047;27;20524;-61
2024/01/11 05:43:32;;;;;;;41.03;20.67;;;;;;;;;;5108445;27;20055;-62
2024/01/11 05:45:58;;;;;;;35.50;19.07;;;;;;;;;;5108197;27;20087;-62
2024/01/11 05:48:25;;;;;;;38.63;20.97;;;;;;;;;;5109260;27;20051;-61
2024/01/11 05:50:51;;;;;;;38.97;20.40;;;;;;;;;;5108612;27;20500;-60
2024/01/11 05:53:20;;;;;;;36.03;20.77;;;;;;;;;;5109150;27;20074;-61
2024/01/11 05:55:47;;;;;;;35.83;19.30;;;;;;;;;;5108819;27;20052;-60
2024/01/11 05:58:14;;;;;;;33.87;18.87;;;;;;;;;;5108526;27;20559;-59
2024/01/11 06:00:41;;;;;;;38.90;19.27;;;;;;;;;;5108317;27;20581;-61
2024/01/11 06:03:08;;;;;;;35.20;19.40;;;;;;;;;;5108932;27;20052;-61
2024/01/11 06:05:34;;;;;;;39.90;22.10;;;;;;;;;;5108403;27;20156;-61
2024/01/11 06:08:01;;;;;;;39.30;19.63;;;;;;;;;;5108404;27;20572;-61
2024/01/11 06:10:27;;;;;;;39.73;21.17;;;;;;;;;;5108125;27;20536;-60
2024/01/11 06:12:56;;;;;;;38.30;21.07;;;;;;;;;;5108428;27;20052;-61
2024/01/11 06:15:22;;;;;;;36.60;20.23;;;;;;;;;;5108092;27;20204;-60
2024/01/11 06:17:49;;;;;;;35.90;19.13;;;;;;;;;;5108761;27;20052;-63
2024/01/11 06:20:16;;;;;;;38.50;20.30;;;;;;;;;;5108338;27;20052;-62
2024/01/11 06:22:42;;;;;;;37.57;20.30;;;;;;;;;;5106862;28;20052;-61
2024/01/11 06:25:11;;;;;;;38.63;21.67;;;;;;;;;;5107938;27;20048;-62
2024/01/11 06:27:37;;;;;;;40.60;20.90;;;;;;;;;;5108128;27;20140;-62
2024/01/11 06:30:04;;;;;;;34.53;19.63;;;;;;;;;;5107817;27;20059;-59
2024/01/11 06:32:31;;;;;;;35.75;19.73;;;;;;;;;;5108603;27;20048;-62
2024/01/11 06:34:57;;;;;;;40.00;21.43;;;;;;;;;;5109034;27;20056;-61
2024/01/11 06:37:24;;;;;;;38.43;21.30;;;;;;;;;;5111756;27;20101;-61
2024/01/11 06:39:50;;;;;;;38.60;20.77;;;;;;;;;;5111766;27;20504;-62
2024/01/11 06:42:16;;;;;;;39.47;21.07;;;;;;;;;;5110518;28;20052;-62
2024/01/11 06:44:45;;;;;;;34.67;19.20;;;;;;;;;;5111264;27;20059;-62
2024/01/11 06:47:11;;;;;;;38.90;22.53;;;;;;;;;;5111595;27;20183;-63
2024/01/11 06:49:39;;;;;;;38.40;21.13;;;;;;;;;;5110996;27;20056;-62
2024/01/11 06:52:06;;;;;;;41.13;21.53;;;;;;;;;;5111349;27;20469;-61
2024/01/11 06:54:32;;;;;;;37.73;21.73;;;;;;;;;;5111797;27;20056;-61
2024/01/11 06:56:59;;;;;;;42.87;21.23;;;;;;;;;;5111455;27;20048;-61
2024/01/11 06:59:25;;;;;;;42.97;23.27;;;;;;;;;;5110728;27;20642;-61
2024/01/11 07:01:52;;;;;;;50.37;22.67;;;;;;;;;;5111415;27;20052;-60
2024/01/11 07:04:18;;;;;;;39.57;21.00;;;;;;;;;;5110525;28;20160;-60
2024/01/11 07:06:45;;;;;;;39.20;21.50;;;;;;;;;;5111061;27;20056;-62
2024/01/11 07:09:12;;;;;;;39.00;20.83;;;;;;;;;;5111416;27;20151;-61
2024/01/11 07:11:38;;;;;;;41.27;23.33;;;;;;;;;;5111514;27;20052;-61
2024/01/11 07:14:04;;;;;;;42.27;21.47;;;;;;;;;;5110993;27;20094;-61
2024/01/11 07:16:31;;;;;;;42.53;21.73;;;;;;;;;;5110191;27;20151;-61
2024/01/11 07:18:57;;;;;;;41.47;23.57;;;;;;;;;;5111052;27;20056;-60
2024/01/11 07:21:31;;;;;;;36.87;21.17;;;;;;;;;;5109793;27;20052;-61
2024/01/11 07:23:58;;;;;;;37.77;20.67;;;;;;;;;;5110781;27;20114;-61
2024/01/11 07:26:24;;;;;;;45.47;21.13;;;;;;;;;;5110585;28;20575;-61
2024/01/11 07:28:51;;;;;;;42.03;22.67;;;;;;;;;;5111174;27;20059;-61
2024/01/11 07:31:17;;;;;;;42.27;21.17;;;;;;;;;;5110979;27;20510;-61
2024/01/11 07:33:44;;;;;;;39.93;21.70;;;;;;;;;;5111050;27;20056;-62
2024/01/11 07:36:11;;;;;;;40.00;21.70;;;;;;;;;;5110884;27;20496;-61
2024/01/11 07:38:38;;;;;;;40.40;21.27;;;;;;;;;;5110958;27;20052;-60
2024/01/11 07:41:04;;;;;;;36.67;20.20;;;;;;;;;;5110511;27;20532;-61
2024/01/11 07:43:34;;;;;;;37.43;21.80;;;;;;;;;;5110662;27;20052;-60
2024/01/11 07:46:14;;;;;;;39.83;21.83;;;;;;;;;;5109777;27;20122;-61
2024/01/11 07:48:41;;;;;;;41.63;20.27;;;;;;;;;;5110298;27;20052;-61
2024/01/11 07:51:07;;;;;;;37.50;21.23;;;;;;;;;;5110599;27;20143;-61
2024/01/11 07:53:34;;;;;;;39.47;21.57;;;;;;;;;;5110787;27;20090;-61
2024/01/11 07:56:01;;;;;;;47.93;22.97;;;;;;;;;;5110164;27;20138;-61
2024/01/11 07:58:27;;;;;;;43.30;21.90;;;;;;;;;;5110781;27;20064;-60
2024/01/11 08:00:54;;;;;;;40.17;22.43;;;;;;;;;;5110643;27;20101;-60
2024/01/11 08:03:20;;;;;;;42.67;22.47;;;;;;;;;;5110820;27;20054;-61
2024/01/11 08:05:50;;;;;;;43.10;22.47;;;;;;;;;;5110760;27;20055;-61
2024/01/11 08:08:17;;;;;;;41.97;21.73;;;;;;;;;;5110969;27;20056;-63
2024/01/11 08:10:43;;;;;;;39.93;21.57;;;;;;;;;;5110026;27;20044;-62
2024/01/11 08:13:09;;;;;;;42.23;23.67;;;;;;;;;;5110279;27;20143;-61
2024/01/11 08:15:37;;;;;;;41.43;22.33;;;;;;;;;;5110228;27;20055;-63
2024/01/11 08:18:04;;;;;;;40.47;23.30;;;;;;;;;;5110464;27;20059;-62
2024/01/11 08:20:31;;;;;;;39.60;20.88;;;;;;;;;;5110664;27;20126;-61
2024/01/11 08:22:58;;;;;;;41.80;23.23;;;;;;;;;;5110021;27;20103;-59
2024/01/11 08:25:24;;;;;;;40.60;21.97;;;;;;;;;;5110051;27;20430;-59
2024/01/11 08:27:50;;;;;;;45.35;24.02;;;;;;;;;;5110669;27;20048;-60
2024/01/11 08:30:17;;;;;;;44.47;22.97;;;;;;;;;;5109876;27;20506;-59
2024/01/11 08:32:44;;;;;;;43.17;23.27;;;;;;;;;;5110013;27;20056;-61
2024/01/11 08:35:11;;;;;;;44.70;23.03;;;;;;;;;;5108734;28;20520;-60
2024/01/11 08:37:39;;;;;;;42.73;23.50;;;;;;;;;;5109516;27;20054;-61
2024/01/11 08:40:05;;;;;;;44.90;23.67;;;;;;;;;;5109487;27;20147;-61
2024/01/11 08:42:32;;;;;;;45.50;22.45;;;;;;;;;;5109875;27;20059;-61
2024/01/11 08:44:59;;;;;;;44.23;23.33;;;;;;;;;;5109744;27;20048;-59
2024/01/11 08:47:27;;;;;;;40.93;23.97;;;;;;;;;;5109726;27;20097;-60
2024/01/11 08:49:55;;;;;;;42.97;25.00;;;;;;;;;;5109251;27;20056;-59
2024/01/11 08:52:22;;;;;;;43.07;23.07;;;;;;;;;;5109899;27;20052;-61
2024/01/11 08:54:49;;;;;;;42.93;22.60;;;;;;;;;;5109275;27;20051;-61
2024/01/11 08:57:17;;;;;;;44.43;22.93;;;;;;;;;;5109041;27;20442;-62
2024/01/11 08:59:44;;;;;;;47.23;24.60;;;;;;;;;;5109727;28;20052;-60
2024/01/11 09:02:10;;;;;;;40.17;23.30;;;;;;;;;;5109480;27;20505;-58
2024/01/11 09:04:44;;;;;;;40.50;22.17;;;;;;;;;;5110179;27;20581;-60
2024/01/11 09:07:10;;;;;;;44.33;23.13;;;;;;;;;;5109582;27;20059;-62
2024/01/11 09:09:36;;;;;;;42.00;21.40;;;;;;;;;;5108613;27;20101;-61
2024/01/11 09:12:16;;;;;;;44.27;22.83;;;;;;;;;;5109439;27;20059;-61
2024/01/11 09:14:42;;;;;;;45.40;22.43;;;;;;;;;;5109202;27;20109;-61
2024/01/11 09:17:08;;;;;;;38.20;21.80;;;;;;;;;;5109423;28;20517;-60
2024/01/11 09:19:37;;;;;;;41.50;21.60;;;;;;;;;;5109383;27;20495;-60
2024/01/11 09:22:04;;;;;;;40.57;21.87;;;;;;;;;;5109206;27;20052;-61
2024/01/11 09:24:30;;;;;;;41.13;20.90;;;;;;;;;;5108689;27;20053;-60
2024/01/11 09:27:04;;;;;;;44.60;21.73;;;;;;;;;;5109125;27;20060;-61
2024/01/11 09:29:30;;;;;;;42.93;21.47;;;;;;;;;;5109147;27;20091;-60
2024/01/11 09:31:56;;;;;;;40.07;20.23;;;;;;;;;;5109030;27;20052;-61
2024/01/11 09:34:23;;;;;;;38.80;20.55;;;;;;;;;;5109302;27;20497;-61
2024/01/11 09:36:49;;;;;;;39.33;19.75;;;;;;;;;;5108593;27;20157;-60
2024/01/11 09:39:16;;;;;;;40.38;20.35;;;;;;;;;;5109699;27;20143;-61
2024/01/11 09:41:51;;;;;;;42.67;20.67;;;;;;;;;;5109187;27;20493;-62
2024/01/11 09:44:18;;;;;;;35.90;18.97;;;;;;;;;;5109093;27;20257;-60
2024/01/11 09:46:44;;;;;;;42.87;19.33;;;;;;;;;;5109105;27;20052;-60
2024/01/11 09:49:11;;;;;;;37.80;17.75;;;;;;;;;;5109213;27;20079;-62
2024/01/11 09:51:38;;;;;;;36.90;19.23;;;;;;;;;;5108008;27;20064;-62
2024/01/11 09:54:04;;;;;;;41.83;18.70;;;;;;;;;;5109097;27;20177;-61
2024/01/11 09:56:31;;;;;;;41.03;20.17;;;;;;;;;;5108583;27;20474;-60
2024/01/11 09:58:58;;;;;;;41.85;18.42;;;;;;;;;;5108473;27;20092;-61
2024/01/11 10:01:25;;;;;;;49.75;20.15;;;;;;;;;;5109205;27;20139;-62
2024/01/11 10:03:52;;;;;;;45.97;20.05;;;;;;;;;;5108529;27;20055;-62
2024/01/11 10:06:19;;;;;;;38.05;17.48;;;;;;;;;;5108181;27;20059;-62
2024/01/11 10:08:46;;;;;;;38.70;18.35;;;;;;;;;;5109176;27;20078;-61
2024/01/11 10:11:12;;;;;;;43.85;18.95;;;;;;;;;;5111449;28;20059;-61
2024/01/11 10:13:39;;;;;;;45.95;19.65;;;;;;;;;;5112270;27;20052;-62
2024/01/11 10:16:06;;;;;;;43.35;19.00;;;;;;;;;;5111883;27;20143;-61
2024/01/11 10:18:33;;;;;;;42.42;19.27;;;;;;;;;;5111606;27;20049;-62
2024/01/11 10:20:59;;;;;;;40.95;20.67;;;;;;;;;;5111674;27;20263;-61
2024/01/11 10:23:28;;;;;;;47.58;18.58;;;;;;;;;;5112213;27;20135;-62
2024/01/11 10:25:58;;;;;;;41.85;18.48;;;;;;;;;;5112270;27;20084;-62
2024/01/11 10:28:28;;;;;;;44.15;18.55;;;;;;;;;;5112172;27;20138;-60
2024/01/11 10:30:55;;;;;;;42.70;18.70;;;;;;;;;;5112556;27;20054;-58
2024/01/11 10:33:22;;;;;;;41.05;18.98;;;;;;;;;;5111823;27;20075;-62
2024/01/11 10:35:49;;;;;;;43.65;19.27;;;;;;;;;;5111338;27;20058;-62
2024/01/11 10:38:16;;;;;;;38.03;15.98;;;;;;;;;;5111722;27;20052;-61
2024/01/11 10:40:43;;;;;;;47.08;19.48;;;;;;;;;;5111469;27;20130;-62
2024/01/11 10:43:15;;;;;;;49.75;18.58;;;;;;;;;;5111619;27;20139;-61
2024/01/11 10:45:42;;;;;;;40.78;19.25;;;;;;;;;;5111508;27;20131;-61
2024/01/11 10:48:15;;;;;;;42.80;18.90;;;;;;;;;;5111949;27;20088;-62
2024/01/11 10:50:43;;;;;;;41.03;18.92;;;;;;;;;;5110820;27;20088;-62
2024/01/11 10:53:21;;;;;;;39.83;18.10;;;;;;;;;;5111962;27;20052;-61
2024/01/11 10:55:48;;;;;;;43.60;17.58;;;;;;;;;;5111510;27;20169;-61
2024/01/11 10:58:15;;;;;;;42.88;17.63;;;;;;;;;;5111487;27;20093;-61
2024/01/11 11:00:42;;;;;;;44.95;18.90;;;;;;;;;;5111352;27;20596;-61
2024/01/11 11:03:08;;;;;;;39.92;18.23;;;;;;;;;;5111421;27;20052;-61
2024/01/11 11:05:36;;;;;;;45.70;18.40;;;;;;;;;;5109557;28;20060;-62
2024/01/11 11:08:03;;;;;;;42.25;18.80;;;;;;;;;;5111471;27;20129;-62
2024/01/11 11:10:31;;;;;;;40.13;18.95;;;;;;;;;;5111318;27;20082;-61
2024/01/11 11:12:59;;;;;;;43.33;19.33;;;;;;;;;;5111930;27;20056;-62
2024/01/11 11:15:29;;;;;;;40.40;17.45;;;;;;;;;;5111986;27;20064;-60
2024/01/11 11:17:55;;;;;;;38.53;18.67;;;;;;;;;;5111533;27;20504;-61
2024/01/11 11:20:22;;;;;;;40.45;18.02;;;;;;;;;;5110750;27;20361;-62
2024/01/11 11:23:05;;;;;;;38.95;17.40;;;;;;;;;;5111041;27;20048;-61
2024/01/11 11:25:31;;;;;;;35.42;16.98;;;;;;;;;;5111131;27;20082;-61
2024/01/11 11:28:00;;;;;;;41.20;18.35;;;;;;;;;;5111341;27;20056;-61
2024/01/11 11:30:27;;;;;;;44.55;18.38;;;;;;;;;;5110731;27;20106;-61
2024/01/11 11:32:54;;;;;;;36.72;16.27;;;;;;;;;;5110954;27;20268;-61
2024/01/11 11:35:22;;;;;;;34.80;16.83;;;;;;;;;;5110927;27;20088;-61
2024/01/11 11:37:52;;;;;;;36.83;16.63;;;;;;;;;;5111109;27;20048;-61
2024/01/11 11:40:19;;;;;;;39.65;17.73;;;;;;;;;;5110776;27;20048;-61
2024/01/11 11:42:45;;;;;;;45.08;18.73;;;;;;;;;;5110886;27;20075;-60
2024/01/11 11:45:23;;;;;;;48.97;17.58;;;;;;;;;;5109636;28;20060;-62
2024/01/11 11:47:50;;;;;;;39.55;17.08;;;;;;;;;;5111612;28;20160;-61
2024/01/11 11:50:17;;;;;;;34.95;17.10;;;;;;;;;;5110638;27;20052;-60
2024/01/11 11:52:44;;;;;;;38.83;18.75;;;;;;;;;;5111651;27;20052;-61
2024/01/11 11:55:11;;;;;;;44.70;18.65;;;;;;;;;;5110715;27;20408;-61
2024/01/11 11:57:38;;;;;;;35.28;17.58;;;;;;;;;;5110638;28;20139;-61
2024/01/11 12:00:06;;;;;;;30.20;16.15;;;;;;;;;;5111161;27;20048;-61
2024/01/11 12:02:35;;;;;;;44.05;19.85;;;;;;;;;;5109771;27;20076;-62
2024/01/11 12:05:03;;;;;;;35.97;17.27;;;;;;;;;;5110148;27;20577;-61
2024/01/11 12:07:30;;;;;;;36.33;16.25;;;;;;;;;;5110254;27;20056;-61
2024/01/11 12:09:57;;;;;;;37.10;17.52;;;;;;;;;;5110455;27;20139;-60
2024/01/11 12:12:23;;;;;;;40.75;18.02;;;;;;;;;;5109993;27;20143;-60
2024/01/11 12:14:50;;;;;;;39.05;17.13;;;;;;;;;;5110382;27;20056;-61
2024/01/11 12:17:16;;;;;;;38.03;17.48;;;;;;;;;;5109879;27;20169;-61
2024/01/11 12:19:43;;;;;;;38.30;17.73;;;;;;;;;;5109891;27;20056;-61
2024/01/11 12:22:09;;;;;;;32.97;17.45;;;;;;;;;;5109921;27;20492;-61
2024/01/11 12:24:36;;;;;;;33.50;16.75;;;;;;;;;;5109957;27;20094;-61
2024/01/11 12:27:02;;;;;;;38.85;18.13;;;;;;;;;;5109773;27;20054;-60
2024/01/11 12:29:30;;;;;;;44.28;24.77;;;;;;;;;;5110147;27;20048;-60
2024/01/11 12:32:12;;;;;;;37.65;18.65;;;;;;;;;;5109158;27;20052;-61
2024/01/11 12:34:39;;;;;;;32.60;17.08;;;;;;;;;;5109871;27;20618;-60
2024/01/11 12:37:06;;;;;;;32.58;17.45;;;;;;;;;;5109673;27;20145;-61
2024/01/11 12:39:32;;;;;;;33.00;16.92;;;;;;;;;;5109570;27;20135;-61
2024/01/11 12:41:59;;;;;;;40.85;19.23;;;;;;;;;;5110358;27;20063;-60
2024/01/11 12:44:26;;;;;;;34.03;17.08;;;;;;;;;;5109463;27;20078;-60
2024/01/11 12:46:52;;;;;;;32.85;16.70;;;;;;;;;;5108946;27;20052;-60
2024/01/11 12:49:19;;;;;;;38.28;19.83;;;;;;;;;;5109653;27;20052;-61
2024/01/11 12:51:46;;;;;;;32.17;17.15;;;;;;;;;;5109244;27;20060;-60
2024/01/11 12:54:19;;;;;;;32.72;18.73;;;;;;;;;;5109307;27;20056;-61
2024/01/11 12:56:45;;;;;;;32.00;17.13;;;;;;;;;;5109273;27;20595;-61
2024/01/11 12:59:12;;;;;;;37.72;19.00;;;;;;;;;;5109296;27;20510;-58
2024/01/11 13:01:39;;;;;;;48.35;29.38;;;;;;;;;;5108990;27;20438;-62
2024/01/11 13:04:08;;;;;;;30.83;17.98;;;;;;;;;;5109726;27;20581;-61
2024/01/11 13:06:34;;;;;;;34.00;18.55;;;;;;;;;;5109275;27;20059;-60
2024/01/11 13:09:01;;;;;;;35.97;18.15;;;;;;;;;;5108947;27;20137;-58
2024/01/11 13:11:28;;;;;;;29.75;16.95;;;;;;;;;;5109287;27;20083;-61
2024/01/11 13:13:54;;;;;;;35.60;16.75;;;;;;;;;;5109249;27;20059;-61
2024/01/11 13:16:21;;;;;;;27.63;15.45;;;;;;;;;;5107657;27;20048;-59
2024/01/11 13:18:48;;;;;;;31.35;16.60;;;;;;;;;;5108972;27;20063;-62
2024/01/11 13:21:14;;;;;;;33.67;16.30;;;;;;;;;;5109100;27;20528;-62
2024/01/11 13:23:41;;;;;;;31.50;17.92;;;;;;;;;;5109278;27;20048;-61
2024/01/11 13:26:08;;;;;;;31.02;15.90;;;;;;;;;;5109141;27;20060;-61
2024/01/11 13:28:35;;;;;;;30.90;15.90;;;;;;;;;;5109087;27;20052;-60
2024/01/11 13:31:02;;;;;;;39.38;23.33;;;;;;;;;;5108652;27;20178;-59
2024/01/11 13:33:29;;;;;;;32.00;18.25;;;;;;;;;;5108734;27;20143;-62
2024/01/11 13:35:55;;;;;;;34.80;18.60;;;;;;;;;;5108830;27;20055;-62
2024/01/11 13:38:22;;;;;;;32.58;17.90;;;;;;;;;;5108567;27;20052;-62
2024/01/11 13:40:51;;;;;;;31.35;19.27;;;;;;;;;;5108819;27;20145;-62
2024/01/11 13:43:17;;;;;;;35.30;17.92;;;;;;;;;;5108097;27;20055;-61
2024/01/11 13:45:44;;;;;;;32.58;18.40;;;;;;;;;;5110879;27;20460;-61
2024/01/11 13:48:11;;;;;;;29.15;15.25;;;;;;;;;;5112909;27;20142;-61
2024/01/11 13:50:37;;;;;;;22.35;13.13;;;;;;;;;;5111848;27;20143;-61
2024/01/11 13:53:04;;;;;;;25.75;13.80;;;;;;;;;;5112047;27;20143;-60
2024/01/11 13:55:37;;;;;;;24.33;13.63;;;;;;;;;;5112627;27;20052;-60
2024/01/11 13:58:04;;;;;;;31.48;13.20;;;;;;;;;;5111593;27;20059;-61
2024/01/11 14:00:31;;;;;;;24.65;13.25;;;;;;;;;;5112679;27;20101;-61
2024/01/11 14:02:57;;;;;;;31.45;16.33;;;;;;;;;;5112353;27;20489;-61
2024/01/11 14:05:24;;;;;;;27.08;15.48;;;;;;;;;;5112241;27;20048;-61
2024/01/11 14:07:57;;;;;;;32.25;15.57;;;;;;;;;;5112054;27;20056;-60
2024/01/11 14:10:23;;;;;;;25.35;14.52;;;;;;;;;;5112380;27;20526;-60
2024/01/11 14:12:52;;;;;;;26.48;14.00;;;;;;;;;;5111513;27;20059;-61
2024/01/11 14:15:18;;;;;;;26.35;12.85;;;;;;;;;;5111780;27;20056;-61
2024/01/11 14:17:45;;;;;;;26.77;13.73;;;;;;;;;;5111986;27;20056;-62